createdAt,value
2023-02-06T00:01:51.312Z,104424.00
2023-02-06T00:04:24.326Z,104420.41
2023-02-06T00:06:51.002Z,104416.25
2023-02-06T00:09:17.666Z,104416.94
2023-02-06T00:11:48.160Z,104418.59
2023-02-06T00:14:15.181Z,104419.06
2023-02-06T00:16:42.160Z,104413.03
2023-02-06T00:19:08.879Z,104413.59
2023-02-06T00:21:35.690Z,104413.53
2023-02-06T00:24:03.429Z,104404.22
2023-02-06T00:26:34.867Z,104416.25
2023-02-06T00:29:01.601Z,104420.75
2023-02-06T00:31:28.684Z,104420.25
2023-02-06T00:33:55.600Z,104413.94
2023-02-06T00:36:26.906Z,104413.38
2023-02-06T00:38:57.298Z,104408.31
2023-02-06T00:41:23.978Z,104406.16
2023-02-06T00:43:50.572Z,104412.78
2023-02-06T00:46:17.638Z,104408.88
2023-02-06T00:48:49.901Z,104413.22
2023-02-06T00:51:19.737Z,104411.63
2023-02-06T00:53:51.192Z,104402.91
2023-02-06T00:56:18.336Z,104395.19
2023-02-06T00:58:48.771Z,104389.72
2023-02-06T01:01:17.000Z,104400.50
2023-02-06T01:03:46.853Z,104401.50
2023-02-06T01:06:14.425Z,104402.97
2023-02-06T01:08:41.406Z,104399.41
2023-02-06T01:11:23.825Z,104402.84
2023-02-06T01:13:50.746Z,104401.75
2023-02-06T01:16:22.765Z,104421.00
2023-02-06T01:18:50.263Z,104425.03
2023-02-06T01:21:20.595Z,104418.66
2023-02-06T01:23:56.140Z,104422.91
2023-02-06T01:26:26.931Z,104412.00
2023-02-06T01:28:55.476Z,104411.28
2023-02-06T01:31:26.228Z,104417.25
2023-02-06T01:33:54.591Z,104426.91
2023-02-06T01:36:25.138Z,104427.72
2023-02-06T01:38:52.777Z,104420.66
2023-02-06T01:41:22.718Z,104420.59
2023-02-06T01:44:15.682Z,104420.50
2023-02-06T01:46:54.780Z,104421.91
2023-02-06T01:49:28.582Z,104423.38
2023-02-06T01:52:01.806Z,104415.09
2023-02-06T01:54:28.821Z,104421.97
2023-02-06T01:57:01.352Z,104419.97
2023-02-06T01:59:28.464Z,104402.47
2023-02-06T02:01:55.537Z,104409.19
2023-02-06T02:04:27.130Z,104393.25
2023-02-06T02:07:23.112Z,104411.84
2023-02-06T02:09:49.981Z,104391.66
2023-02-06T02:12:17.007Z,104396.09
2023-02-06T02:14:45.782Z,104396.66
2023-02-06T02:17:30.989Z,104394.56
2023-02-06T02:20:35.044Z,104389.25
2023-02-06T02:23:29.256Z,104384.38
2023-02-06T02:26:32.466Z,104362.38
2023-02-06T02:29:23.948Z,104377.81
2023-02-06T02:32:31.832Z,104378.06
2023-02-06T02:35:20.770Z,104383.78
2023-02-06T02:37:53.000Z,104377.75
2023-02-06T02:40:43.960Z,104364.34
2023-02-06T02:43:34.982Z,104373.06
2023-02-06T02:46:24.316Z,104368.56
2023-02-06T02:48:54.810Z,104367.13
2023-02-06T02:51:22.312Z,104365.63
2023-02-06T02:53:48.906Z,104367.28
2023-02-06T02:56:21.620Z,104359.38
2023-02-06T02:58:56.999Z,104364.84
2023-02-06T03:01:32.110Z,104355.69
2023-02-06T03:04:04.491Z,104356.19
2023-02-06T03:06:52.937Z,104356.56
2023-02-06T03:09:28.481Z,104372.88
2023-02-06T03:12:12.240Z,104366.56
2023-02-06T03:14:49.276Z,104366.25
2023-02-06T03:17:24.975Z,104353.56
2023-02-06T03:19:58.492Z,104362.38
2023-02-06T03:22:28.198Z,104367.59
2023-02-06T03:24:57.099Z,104371.00
2023-02-06T03:27:27.320Z,104355.22
2023-02-06T03:29:55.269Z,104349.28
2023-02-06T03:32:32.498Z,104367.38
2023-02-06T03:35:21.938Z,104373.13
2023-02-06T03:37:50.234Z,104369.38
2023-02-06T03:40:18.243Z,104370.53
2023-02-06T03:42:51.225Z,104369.44
2023-02-06T03:45:26.416Z,104364.88
2023-02-06T03:47:56.595Z,104352.00
2023-02-06T03:50:26.301Z,104367.81
2023-02-06T03:52:55.662Z,104367.22
2023-02-06T03:55:24.101Z,104369.84
2023-02-06T03:57:59.194Z,104352.03
2023-02-06T04:00:26.730Z,104353.19
2023-02-06T04:02:55.420Z,104350.34
2023-02-06T04:05:22.114Z,104364.50
2023-02-06T04:07:49.049Z,104365.19
2023-02-06T04:10:15.716Z,104366.63
2023-02-06T04:12:42.248Z,104369.22
2023-02-06T04:15:09.372Z,104370.88
2023-02-06T04:17:53.550Z,104376.22
2023-02-06T04:20:23.021Z,104363.03
2023-02-06T04:22:50.386Z,104380.16
2023-02-06T04:25:17.038Z,104396.47
2023-02-06T04:27:43.630Z,104389.13
2023-02-06T04:30:10.814Z,104394.56
2023-02-06T04:32:37.403Z,104398.44
2023-02-06T04:35:04.299Z,104395.00
2023-02-06T04:37:30.971Z,104374.56
2023-02-06T04:39:57.545Z,104385.19
2023-02-06T04:42:24.099Z,104367.38
2023-02-06T04:44:50.991Z,104391.16
2023-02-06T04:47:17.745Z,104364.44
2023-02-06T04:49:44.390Z,104390.03
2023-02-06T04:52:10.999Z,104382.66
2023-02-06T04:54:37.601Z,104370.50
2023-02-06T04:57:04.193Z,104353.94
2023-02-06T04:59:30.857Z,104376.28
2023-02-06T05:01:57.521Z,104368.97
2023-02-06T05:04:24.239Z,104363.03
2023-02-06T05:06:50.882Z,104364.53
2023-02-06T05:09:17.473Z,104360.00
2023-02-06T05:11:44.152Z,104358.25
2023-02-06T05:14:10.799Z,104343.94
2023-02-06T05:16:37.469Z,104352.88
2023-02-06T05:19:04.020Z,104361.34
2023-02-06T05:21:30.826Z,104365.13
2023-02-06T05:23:57.479Z,104378.78
2023-02-06T05:26:24.105Z,104372.97
2023-02-06T05:28:50.881Z,104373.50
2023-02-06T05:31:20.533Z,104369.66
2023-02-06T05:33:52.577Z,104344.22
2023-02-06T05:36:20.275Z,104374.19
2023-02-06T05:38:48.023Z,104375.94
2023-02-06T05:41:15.542Z,104380.19
2023-02-06T05:43:42.250Z,104381.22
2023-02-06T05:46:09.609Z,104379.34
2023-02-06T05:48:36.365Z,104366.03
2023-02-06T05:51:03.052Z,104381.84
2023-02-06T05:53:29.797Z,104381.06
2023-02-06T05:55:57.256Z,104385.25
2023-02-06T05:58:24.108Z,104379.94
2023-02-06T06:00:50.657Z,104382.38
2023-02-06T06:03:17.306Z,104369.06
2023-02-06T06:05:43.927Z,104375.56
2023-02-06T06:08:10.563Z,104374.06
2023-02-06T06:10:37.260Z,104377.09
2023-02-06T06:13:04.124Z,104393.59
2023-02-06T06:15:30.907Z,104394.28
2023-02-06T06:17:57.498Z,104378.28
2023-02-06T06:20:24.121Z,104386.59
2023-02-06T06:22:50.770Z,104367.22
2023-02-06T06:25:17.416Z,104398.59
2023-02-06T06:27:43.999Z,104380.25
2023-02-06T06:30:11.289Z,104405.25
2023-02-06T06:32:38.182Z,104390.31
2023-02-06T06:35:05.224Z,104402.44
2023-02-06T06:37:31.923Z,104403.94
2023-02-06T06:39:58.520Z,104403.56
2023-02-06T06:42:25.114Z,104404.09
2023-02-06T06:44:51.839Z,104411.19
2023-02-06T06:47:18.494Z,104407.19
2023-02-06T06:49:45.035Z,104401.16
2023-02-06T06:52:23.949Z,104394.50
2023-02-06T06:54:52.433Z,104395.50
2023-02-06T06:57:19.587Z,104389.94
2023-02-06T06:59:46.217Z,104352.00
2023-02-06T07:02:12.901Z,104386.53
2023-02-06T07:04:39.872Z,104368.75
2023-02-06T07:07:07.095Z,104394.56
2023-02-06T07:09:34.175Z,104383.53
2023-02-06T07:12:00.832Z,104389.44
2023-02-06T07:14:27.460Z,104381.47
2023-02-06T07:16:54.046Z,104390.69
2023-02-06T07:19:21.458Z,104383.59
2023-02-06T07:21:48.100Z,104377.31
2023-02-06T07:24:14.924Z,104381.09
2023-02-06T07:26:41.637Z,104387.97
2023-02-06T07:29:08.362Z,104384.16
2023-02-06T07:31:35.140Z,104391.19
2023-02-06T07:34:02.345Z,104372.63
2023-02-06T07:36:29.116Z,104383.81
2023-02-06T07:38:56.040Z,104384.91
2023-02-06T07:41:22.861Z,104379.06
2023-02-06T07:43:49.462Z,104376.25
2023-02-06T07:46:16.120Z,104373.75
2023-02-06T07:48:42.784Z,104370.88
2023-02-06T07:51:10.270Z,104382.00
2023-02-06T07:53:37.992Z,104385.94
2023-02-06T07:56:13.654Z,104380.41
2023-02-06T07:58:41.133Z,104369.75
2023-02-06T08:01:08.427Z,104361.19
2023-02-06T08:03:35.332Z,104350.88
2023-02-06T08:06:08.240Z,104347.84
2023-02-06T08:08:34.980Z,104359.13
2023-02-06T08:11:05.561Z,104357.09
2023-02-06T08:13:32.321Z,104334.84
2023-02-06T08:15:58.998Z,104349.22
2023-02-06T08:18:26.388Z,104337.94
2023-02-06T08:20:52.993Z,104335.59
2023-02-06T08:23:20.913Z,104334.75
2023-02-06T08:25:47.755Z,104334.78
2023-02-06T08:28:15.117Z,104331.47
2023-02-06T08:30:41.896Z,104328.78
2023-02-06T08:33:08.493Z,104330.50
2023-02-06T08:35:35.439Z,104327.66
2023-02-06T08:38:02.166Z,104321.19
2023-02-06T08:40:28.761Z,104329.47
2023-02-06T08:42:55.391Z,104331.47
2023-02-06T08:45:22.021Z,104323.63
2023-02-06T08:47:48.755Z,104326.84
2023-02-06T08:50:15.718Z,104327.44
2023-02-06T08:52:42.375Z,104323.75
2023-02-06T08:55:09.009Z,104310.81
2023-02-06T08:57:35.625Z,104316.03
2023-02-06T09:00:02.490Z,104321.84
2023-02-06T09:02:29.100Z,104329.09
2023-02-06T09:04:55.860Z,104334.28
2023-02-06T09:07:22.523Z,104311.88
2023-02-06T09:09:49.156Z,104311.53
2023-02-06T09:12:15.882Z,104317.13
2023-02-06T09:14:42.542Z,104322.47
2023-02-06T09:17:09.175Z,104321.63
2023-02-06T09:19:35.852Z,104320.66
2023-02-06T09:22:02.759Z,104307.78
2023-02-06T09:24:30.258Z,104306.00
2023-02-06T09:27:00.138Z,104304.78
2023-02-06T09:29:32.070Z,104307.00
2023-02-06T09:31:59.406Z,104278.03
2023-02-06T09:34:28.058Z,104303.00
2023-02-06T09:36:56.734Z,104312.34
2023-02-06T09:39:23.747Z,104300.25
2023-02-06T09:41:56.731Z,104304.97
2023-02-06T09:44:44.466Z,104291.03
2023-02-06T09:47:19.954Z,104293.38
2023-02-06T09:49:57.698Z,104303.22
2023-02-06T09:52:27.010Z,104306.28
2023-02-06T09:55:03.351Z,104310.69
2023-02-06T09:57:41.685Z,104313.91
2023-02-06T10:00:35.601Z,104317.88
2023-02-06T10:03:27.126Z,104320.47
2023-02-06T10:05:59.538Z,104315.34
2023-02-06T10:08:34.234Z,104312.44
2023-02-06T10:11:09.558Z,104316.66
2023-02-06T10:13:49.756Z,104316.16
2023-02-06T10:16:26.144Z,104319.13
2023-02-06T10:18:57.860Z,104313.63
2023-02-06T10:21:42.782Z,104308.78
2023-02-06T10:24:23.803Z,104302.25
2023-02-06T10:26:53.486Z,104302.69
2023-02-06T10:29:28.342Z,104292.63
2023-02-06T10:32:02.108Z,104299.84
2023-02-06T10:34:37.618Z,104285.31
2023-02-06T10:37:20.080Z,104282.31
2023-02-06T10:40:01.515Z,104275.13
2023-02-06T10:42:43.951Z,104278.28
2023-02-06T10:45:20.162Z,104276.25
2023-02-06T10:47:56.285Z,104280.25
2023-02-06T10:50:30.885Z,104280.88
2023-02-06T10:53:03.895Z,104254.47
2023-02-06T10:55:49.242Z,104253.31
2023-02-06T10:58:42.823Z,104268.47
2023-02-06T11:01:25.048Z,104248.81
2023-02-06T11:04:12.544Z,104257.63
2023-02-06T11:06:41.544Z,104263.16
2023-02-06T11:09:10.371Z,104251.66
2023-02-06T11:11:40.958Z,104250.66
2023-02-06T11:14:25.312Z,104242.50
2023-02-06T11:16:53.386Z,104225.53
2023-02-06T11:19:36.195Z,104233.75
2023-02-06T11:22:07.262Z,104227.22
2023-02-06T11:24:38.515Z,104230.94
2023-02-06T11:27:22.815Z,104209.97
2023-02-06T11:29:52.171Z,104196.25
2023-02-06T11:32:27.756Z,104184.72
2023-02-06T11:34:59.216Z,104177.38
2023-02-06T11:37:36.748Z,104151.19
2023-02-06T11:40:18.718Z,104151.66
2023-02-06T11:42:47.112Z,104147.00
2023-02-06T11:45:23.016Z,104141.84
2023-02-06T11:47:49.829Z,104139.91
2023-02-06T11:50:36.465Z,104129.53
2023-02-06T11:53:11.831Z,104129.25
2023-02-06T11:55:39.789Z,104120.44
2023-02-06T11:58:12.540Z,104124.84
2023-02-06T12:00:52.340Z,104109.44
2023-02-06T12:03:25.239Z,104099.28
2023-02-06T12:05:52.384Z,104085.81
2023-02-06T12:08:21.921Z,104096.00
2023-02-06T12:10:59.771Z,104093.78
2023-02-06T12:13:37.519Z,104097.38
2023-02-06T12:16:07.749Z,104083.31
2023-02-06T12:18:38.677Z,104074.22
2023-02-06T12:21:07.681Z,104049.75
2023-02-06T12:23:34.269Z,104074.25
2023-02-06T12:26:05.053Z,104060.75
2023-02-06T12:28:42.861Z,104066.00
2023-02-06T12:31:42.978Z,104083.88
2023-02-06T12:34:18.507Z,104072.56
2023-02-06T12:37:10.599Z,104071.44
2023-02-06T12:39:37.430Z,104062.63
2023-02-06T12:42:32.070Z,104065.44
2023-02-06T12:45:15.758Z,104059.53
2023-02-06T12:47:52.048Z,104037.16
2023-02-06T12:50:27.225Z,104024.84
2023-02-06T12:53:04.626Z,104026.00
2023-02-06T12:55:40.157Z,104032.13
2023-02-06T12:58:30.294Z,104026.19
2023-02-06T13:01:02.297Z,104017.72
2023-02-06T13:03:34.809Z,104020.69
2023-02-06T13:06:12.392Z,104017.22
2023-02-06T13:08:50.337Z,104008.50
2023-02-06T13:11:31.941Z,104002.25
2023-02-06T13:14:23.138Z,104003.53
2023-02-06T13:16:53.379Z,103998.28
2023-02-06T13:19:42.078Z,104000.09
2023-02-06T13:22:08.746Z,103991.63
2023-02-06T13:24:36.929Z,103994.75
2023-02-06T13:27:09.736Z,103981.09
2023-02-06T13:29:46.996Z,103987.88
2023-02-06T13:32:18.636Z,103974.22
2023-02-06T13:34:53.797Z,103949.16
2023-02-06T13:37:39.947Z,103951.06
2023-02-06T13:40:25.599Z,103962.13
2023-02-06T13:42:55.973Z,103958.72
2023-02-06T13:45:27.780Z,103944.25
2023-02-06T13:48:06.325Z,103947.44
2023-02-06T13:50:46.904Z,103949.84
2023-02-06T13:53:53.512Z,103956.63
2023-02-06T13:56:44.720Z,103955.53
2023-02-06T13:59:33.104Z,103961.53
2023-02-06T14:02:19.981Z,103956.84
2023-02-06T14:04:47.007Z,103949.84
2023-02-06T14:07:22.837Z,103957.16
2023-02-06T14:10:14.112Z,103959.88
2023-02-06T14:12:49.802Z,103955.81
2023-02-06T14:15:39.674Z,103946.47
2023-02-06T14:18:25.028Z,103943.78
2023-02-06T14:21:09.932Z,103943.50
2023-02-06T14:24:19.771Z,103950.75
2023-02-06T14:26:58.393Z,103954.38
2023-02-06T14:29:37.922Z,103954.44
2023-02-06T14:32:16.597Z,103944.69
2023-02-06T14:35:14.319Z,103950.91
2023-02-06T14:37:57.829Z,103953.97
2023-02-06T14:40:27.135Z,103951.69
2023-02-06T14:42:58.212Z,103942.88
2023-02-06T14:45:40.812Z,103934.75
2023-02-06T14:48:30.336Z,103954.34
2023-02-06T14:50:58.423Z,103952.16
2023-02-06T14:53:39.470Z,103950.44
2023-02-06T14:56:07.691Z,103960.34
2023-02-06T14:58:34.689Z,103955.03
2023-02-06T15:01:21.178Z,103962.22
2023-02-06T15:03:50.070Z,103954.19
2023-02-06T15:06:31.041Z,103962.16
2023-02-06T15:08:57.787Z,103967.06
2023-02-06T15:11:32.394Z,103963.66
2023-02-06T15:14:03.504Z,103944.59
2023-02-06T15:16:31.082Z,103968.84
2023-02-06T15:19:12.646Z,103958.47
2023-02-06T15:21:43.172Z,103965.94
2023-02-06T15:24:17.700Z,103972.25
2023-02-06T15:27:26.588Z,103979.47
2023-02-06T15:29:53.412Z,103985.25
2023-02-06T15:32:33.239Z,103984.41
2023-02-06T15:35:01.628Z,103985.47
2023-02-06T15:37:32.435Z,103985.22
2023-02-06T15:40:13.117Z,103983.88
2023-02-06T15:42:40.484Z,103987.72
2023-02-06T15:45:15.322Z,103982.78
2023-02-06T15:47:44.634Z,103977.91
2023-02-06T15:50:16.152Z,103969.66
2023-02-06T15:52:47.102Z,103972.44
2023-02-06T15:55:28.198Z,103979.31
2023-02-06T15:57:56.968Z,103974.63
2023-02-06T16:00:30.539Z,103976.28
2023-02-06T16:03:03.088Z,103971.34
2023-02-06T16:05:31.106Z,103978.19
2023-02-06T16:07:58.846Z,103968.56
2023-02-06T16:10:36.550Z,103951.81
2023-02-06T16:13:10.901Z,103953.75
2023-02-06T16:15:39.811Z,103968.31
2023-02-06T16:18:25.050Z,103968.88
2023-02-06T16:20:51.724Z,103963.09
2023-02-06T16:23:19.873Z,103967.78
2023-02-06T16:25:48.767Z,103965.84
2023-02-06T16:28:23.557Z,103964.47
2023-02-06T16:31:04.872Z,103956.22
2023-02-06T16:33:40.758Z,103969.69
2023-02-06T16:36:07.922Z,103975.75
2023-02-06T16:38:34.816Z,103986.75
2023-02-06T16:41:01.518Z,103955.94
2023-02-06T16:43:30.678Z,103967.47
2023-02-06T16:46:00.221Z,103960.34
2023-02-06T16:48:26.845Z,103963.09
2023-02-06T16:50:53.624Z,103967.47
2023-02-06T16:53:24.044Z,103973.22
2023-02-06T16:55:51.402Z,103984.53
2023-02-06T16:58:21.791Z,103983.41
2023-02-06T17:00:49.168Z,103975.72
2023-02-06T17:03:17.537Z,103991.13
2023-02-06T17:05:46.392Z,103971.25
2023-02-06T17:08:21.771Z,103992.72
2023-02-06T17:10:49.007Z,103990.00
2023-02-06T17:13:18.522Z,103991.13
2023-02-06T17:15:49.160Z,103987.00
2023-02-06T17:18:18.667Z,103989.47
2023-02-06T17:20:48.821Z,103980.38
2023-02-06T17:23:15.960Z,103994.72
2023-02-06T17:25:44.544Z,104013.09
2023-02-06T17:28:17.469Z,104002.41
2023-02-06T17:30:45.795Z,104007.09
2023-02-06T17:33:12.770Z,104006.53
2023-02-06T17:35:39.509Z,103997.19
2023-02-06T17:38:08.408Z,103996.09
2023-02-06T17:40:37.433Z,103990.56
2023-02-06T17:43:04.748Z,103996.38
2023-02-06T17:45:32.216Z,103993.91
2023-02-06T17:47:58.846Z,104003.25
2023-02-06T17:50:27.566Z,103998.31
2023-02-06T17:52:56.117Z,103992.78
2023-02-06T17:55:24.056Z,103992.78
2023-02-06T17:57:51.571Z,103998.28
2023-02-06T18:00:20.234Z,103978.66
2023-02-06T18:02:46.814Z,103979.78
2023-02-06T18:05:13.631Z,103994.94
2023-02-06T18:07:40.654Z,103985.06
2023-02-06T18:10:08.901Z,103987.84
2023-02-06T18:12:35.856Z,103990.31
2023-02-06T18:15:03.416Z,103976.03
2023-02-06T18:17:30.969Z,103977.94
2023-02-06T18:19:57.735Z,103995.50
2023-02-06T18:22:24.320Z,103990.28
2023-02-06T18:24:51.256Z,103981.22
2023-02-06T18:27:19.621Z,103973.25
2023-02-06T18:29:50.027Z,103956.22
2023-02-06T18:32:18.246Z,103969.91
2023-02-06T18:34:45.079Z,103956.41
2023-02-06T18:37:11.757Z,103961.50
2023-02-06T18:39:39.312Z,103974.94
2023-02-06T18:42:24.285Z,103960.31
2023-02-06T18:44:50.896Z,103977.34
2023-02-06T18:47:18.867Z,103963.88
2023-02-06T18:49:45.473Z,103957.25
2023-02-06T18:52:12.619Z,103972.38
2023-02-06T18:54:39.617Z,103971.19
2023-02-06T18:57:06.351Z,103968.69
2023-02-06T18:59:33.089Z,103970.56
2023-02-06T19:01:59.794Z,103968.25
2023-02-06T19:04:26.493Z,103965.75
2023-02-06T19:06:53.075Z,103965.19
2023-02-06T19:09:20.193Z,103981.41
2023-02-06T19:11:48.160Z,103979.53
2023-02-06T19:14:16.928Z,103959.78
2023-02-06T19:16:47.323Z,103985.75
2023-02-06T19:19:14.125Z,103975.88
2023-02-06T19:21:40.964Z,103968.19
2023-02-06T19:24:08.124Z,103974.97
2023-02-06T19:26:34.782Z,103979.34
2023-02-06T19:29:01.497Z,103977.56
2023-02-06T19:31:28.334Z,103977.66
2023-02-06T19:33:58.321Z,103972.53
2023-02-06T19:36:27.007Z,103976.66
2023-02-06T19:38:56.474Z,103987.13
2023-02-06T19:41:25.365Z,103984.75
2023-02-06T19:43:53.784Z,103985.22
2023-02-06T19:46:22.969Z,103993.22
2023-02-06T19:48:51.390Z,104005.38
2023-02-06T19:51:21.393Z,103993.06
2023-02-06T19:53:53.387Z,104013.28
2023-02-06T19:56:26.404Z,104011.63
2023-02-06T19:58:58.061Z,104015.22
2023-02-06T20:01:25.234Z,104014.81
2023-02-06T20:03:53.051Z,104012.16
2023-02-06T20:06:19.833Z,104019.22
2023-02-06T20:08:47.198Z,104030.53
2023-02-06T20:11:17.604Z,104019.69
2023-02-06T20:13:46.983Z,104007.66
2023-02-06T20:16:19.249Z,104011.50
2023-02-06T20:18:46.033Z,104010.50
2023-02-06T20:21:27.955Z,104004.88
2023-02-06T20:23:57.026Z,104007.78
2023-02-06T20:26:26.778Z,104011.34
2023-02-06T20:28:53.483Z,104011.81
2023-02-06T20:31:21.323Z,104017.97
2023-02-06T20:33:49.246Z,104013.53
2023-02-06T20:36:18.957Z,104017.09
2023-02-06T20:38:56.928Z,104007.75
2023-02-06T20:41:27.673Z,103996.50
2023-02-06T20:43:57.236Z,104000.41
2023-02-06T20:46:25.135Z,104001.00
2023-02-06T20:48:57.393Z,104012.69
2023-02-06T20:51:24.804Z,104010.00
2023-02-06T20:53:51.685Z,104011.97
2023-02-06T20:56:19.820Z,104007.25
2023-02-06T20:58:46.781Z,103990.41
2023-02-06T21:01:27.054Z,104006.66
2023-02-06T21:04:03.455Z,104005.63
2023-02-06T21:06:30.718Z,104013.03
2023-02-06T21:09:00.203Z,104006.88
2023-02-06T21:11:37.345Z,104007.88
2023-02-06T21:14:05.325Z,103988.53
2023-02-06T21:16:33.218Z,104006.13
2023-02-06T21:19:01.057Z,104001.16
2023-02-06T21:21:27.730Z,103996.22
2023-02-06T21:23:55.967Z,104009.03
2023-02-06T21:26:23.928Z,104012.66
2023-02-06T21:28:50.767Z,103995.16
2023-02-06T21:31:20.810Z,104006.50
2023-02-06T21:33:48.913Z,104009.97
2023-02-06T21:36:16.306Z,104007.06
2023-02-06T21:38:43.641Z,104013.19
2023-02-06T21:41:13.535Z,104017.16
2023-02-06T21:43:40.512Z,104011.00
2023-02-06T21:46:07.299Z,104018.00
2023-02-06T21:48:35.259Z,104016.81
2023-02-06T21:51:13.410Z,104006.78
2023-02-06T21:53:40.783Z,104015.19
2023-02-06T21:56:09.344Z,104013.16
2023-02-06T21:58:36.657Z,104011.50
2023-02-06T22:01:08.759Z,103995.16
2023-02-06T22:03:35.604Z,104007.97
2023-02-06T22:06:09.167Z,104009.53
2023-02-06T22:08:36.433Z,104016.53
2023-02-06T22:11:12.860Z,104012.63
2023-02-06T22:13:40.218Z,104016.09
2023-02-06T22:16:08.873Z,104015.97
2023-02-06T22:18:35.755Z,104019.28
2023-02-06T22:21:13.684Z,104021.66
2023-02-06T22:23:40.953Z,104025.56
2023-02-06T22:26:09.907Z,104019.06
2023-02-06T22:28:37.040Z,104014.66
2023-02-06T22:31:13.328Z,104015.72
2023-02-06T22:33:40.383Z,104021.19
2023-02-06T22:36:10.035Z,103999.97
2023-02-06T22:38:37.270Z,104017.75
2023-02-06T22:41:06.831Z,104011.59
2023-02-06T22:43:35.704Z,103992.97
2023-02-06T22:46:03.222Z,104009.81
2023-02-06T22:48:29.922Z,104006.13
2023-02-06T22:50:57.049Z,104007.91
2023-02-06T22:53:29.705Z,104003.63
2023-02-06T22:56:20.964Z,104004.09
2023-02-06T22:58:49.130Z,104012.06
2023-02-06T23:01:17.300Z,103995.69
2023-02-06T23:03:43.993Z,103997.13
2023-02-06T23:06:12.866Z,104004.00
2023-02-06T23:08:40.895Z,104009.66
2023-02-06T23:11:09.248Z,104015.81
2023-02-06T23:13:36.179Z,104005.31
2023-02-06T23:16:03.704Z,104007.78
2023-02-06T23:18:30.705Z,104004.13
2023-02-06T23:20:59.466Z,103999.13
2023-02-06T23:23:29.439Z,103995.47
2023-02-06T23:25:57.347Z,104004.72
2023-02-06T23:28:25.586Z,104007.19
2023-02-06T23:30:53.046Z,103986.44
2023-02-06T23:33:19.824Z,104007.91
2023-02-06T23:35:46.763Z,104004.84
2023-02-06T23:38:13.592Z,104016.44
2023-02-06T23:40:40.332Z,104011.91
2023-02-06T23:43:07.537Z,104011.00
2023-02-06T23:45:34.737Z,104017.50
2023-02-06T23:48:01.986Z,104010.97
2023-02-06T23:50:28.961Z,103994.75
2023-02-06T23:52:55.513Z,104009.19
2023-02-06T23:55:22.153Z,104002.81
2023-02-06T23:57:48.849Z,104002.56
